Time;durP1;ratioP1;P1;durP2;ratioP2;P2;SDS_P1;SDS_P2;PMS_P1;PMS_P2;Temp;Humidity;BMP_temperature;BMP_pressure;BME280_temperature;BME280_humidity;BME280_pressure;Samples;Min_cycle;Max_cycle;Signal;HPM_P1;HPM_P2
2022/07/09 00:00:39;;;;;;;9.90;5.32;;;;;;;-141.50;100.00;63355.56;5029996;28;20131;-76
2022/07/09 00:03:08;;;;;;;7.53;4.90;;;;;;;-141.50;100.00;63355.56;5050665;28;20049;-80
2022/07/09 00:05:34;;;;;;;11.60;5.35;;;;;;;-141.50;100.00;63355.56;5033825;28;20343;-79
2022/07/09 00:08:01;;;;;;;6.72;4.72;;;;;;;-141.50;100.00;63355.56;5049562;28;20052;-79
2022/07/09 00:10:28;;;;;;;10.20;4.57;;;;;;;-141.50;100.00;63355.56;5048044;28;20531;-76
2022/07/09 00:12:54;;;;;;;6.18;4.05;;;;;;;-141.50;100.00;63355.56;5047483;28;20053;-78
2022/07/09 00:15:21;;;;;;;11.45;4.97;;;;;;;-141.50;100.00;63355.56;5029730;28;20116;-78
2022/07/09 00:17:47;;;;;;;12.43;4.63;;;;;;;-141.50;100.00;63355.56;5030604;28;20079;-78
2022/07/09 00:20:14;;;;;;;9.93;4.55;;;;;;;-141.50;100.00;63355.56;5046993;28;20045;-78
2022/07/09 00:22:41;;;;;;;9.18;4.45;;;;;;;-141.50;100.00;63355.56;5051949;28;20106;-79
2022/07/09 00:25:07;;;;;;;11.10;4.75;;;;;;;-141.50;100.00;63355.56;5035413;28;20552;-78
2022/07/09 00:27:34;;;;;;;11.32;4.50;;;;;;;-141.50;100.00;63355.56;5051759;28;20128;-78
2022/07/09 00:30:01;;;;;;;13.95;4.68;;;;;;;-141.50;100.00;63355.56;5052944;28;20057;-78
2022/07/09 00:32:27;;;;;;;11.15;3.80;;;;;;;-141.50;100.00;63355.56;5048857;28;20049;-76
2022/07/09 00:34:54;;;;;;;7.55;4.00;;;;;;;-141.50;100.00;63355.56;5048947;28;20049;-76
2022/07/09 00:37:20;;;;;;;14.32;4.57;;;;;;;-141.50;100.00;63355.56;5048466;28;20088;-79
2022/07/09 00:39:47;;;;;;;8.27;4.63;;;;;;;-141.50;100.00;63355.56;5049034;28;20077;-78
2022/07/09 00:42:19;;;;;;;9.10;4.60;;;;;;;-141.50;100.00;63355.56;5032170;28;20076;-77
2022/07/09 00:44:46;;;;;;;10.63;4.50;;;;;;;-141.50;100.00;63355.56;5047702;28;20094;-77
2022/07/09 00:47:13;;;;;;;9.00;4.80;;;;;;;-141.50;100.00;63355.56;5046571;28;20048;-77
2022/07/09 00:49:41;;;;;;;7.47;4.18;;;;;;;-141.50;100.00;63355.56;5027194;28;20136;-77
2022/07/09 00:52:11;;;;;;;10.55;4.38;;;;;;;-141.50;100.00;63355.56;5009530;28;20053;-77
2022/07/09 00:54:40;;;;;;;9.77;4.85;;;;;;;-141.50;100.00;63355.56;5028254;28;20058;-77
2022/07/09 00:57:10;;;;;;;9.80;4.90;;;;;;;-141.50;100.00;63355.56;5012165;28;20103;-78
2022/07/09 00:59:38;;;;;;;12.85;4.30;;;;;;;-141.50;100.00;63355.56;5028393;28;20195;-77
2022/07/09 01:02:08;;;;;;;7.22;4.20;;;;;;;-141.50;100.00;63355.56;5029938;28;20471;-79
2022/07/09 01:04:36;;;;;;;9.15;3.67;;;;;;;-141.50;100.00;63355.56;5026168;28;20049;-77
2022/07/09 01:07:03;;;;;;;8.45;3.67;;;;;;;-141.50;100.00;63355.56;5027030;28;20045;-78
2022/07/09 01:09:31;;;;;;;12.50;3.42;;;;;;;-141.50;100.00;63355.56;5028077;28;20045;-77
2022/07/09 01:11:58;;;;;;;10.77;3.42;;;;;;;-141.50;100.00;63355.56;5029169;28;20121;-79
2022/07/09 01:14:25;;;;;;;9.98;3.58;;;;;;;-141.50;100.00;63355.56;5033909;28;20061;-77
2022/07/09 01:17:03;;;;;;;10.27;3.28;;;;;;;-141.50;100.00;63355.56;5014915;28;20569;-79
2022/07/09 01:19:31;;;;;;;11.00;3.50;;;;;;;-141.50;100.00;63355.56;5037111;28;20548;-79
2022/07/09 01:21:58;;;;;;;13.15;3.50;;;;;;;-141.50;100.00;63355.56;5033809;28;20064;-78
2022/07/09 01:24:32;;;;;;;7.93;3.38;;;;;;;-141.50;100.00;63355.56;5033869;28;20053;-79
2022/07/09 01:26:59;;;;;;;6.80;3.55;;;;;;;-141.50;100.00;63355.56;5034852;28;20099;-79
2022/07/09 01:29:26;;;;;;;7.55;3.30;;;;;;;-141.50;100.00;63355.56;5033898;28;20092;-79
2022/07/09 01:31:52;;;;;;;4.75;2.88;;;;;;;-141.50;100.00;63355.56;5030309;28;20572;-77
2022/07/09 01:34:19;;;;;;;6.20;3.05;;;;;;;-141.50;100.00;63355.56;5012728;28;20530;-77
2022/07/09 01:36:45;;;;;;;10.73;3.00;;;;;;;-141.50;100.00;63355.56;5032429;28;20057;-79
2022/07/09 01:39:12;;;;;;;9.63;3.38;;;;;;;-141.50;100.00;63355.56;5030572;28;20138;-78
2022/07/09 01:41:39;;;;;;;12.35;4.47;;;;;;;-141.50;100.00;63355.56;5013501;28;20148;-78
2022/07/09 01:44:08;;;;;;;11.77;4.38;;;;;;;-141.50;100.00;63355.56;5030609;28;20104;-78
2022/07/09 01:46:35;;;;;;;9.20;3.75;;;;;;;-141.50;100.00;63355.56;5048576;28;20167;-78
2022/07/09 01:49:03;;;;;;;9.88;3.70;;;;;;;-141.50;100.00;63355.56;5050316;28;20144;-79
2022/07/09 01:51:30;;;;;;;7.25;3.20;;;;;;;-141.50;100.00;63355.56;5033030;28;20041;-78
2022/07/09 01:53:57;;;;;;;8.25;3.50;;;;;;;-141.50;100.00;63355.56;5051248;28;20049;-78
2022/07/09 01:56:23;;;;;;;7.50;3.03;;;;;;;-141.50;100.00;63355.56;5034670;28;20076;-77
2022/07/09 01:58:50;;;;;;;9.10;2.60;;;;;;;-141.50;100.00;63355.56;5057236;28;20081;-76
2022/07/09 02:01:17;;;;;;;8.85;2.65;;;;;;;-141.50;100.00;63355.56;5060192;28;20072;-80
2022/07/09 02:03:44;;;;;;;8.82;2.83;;;;;;;-141.50;100.00;63355.56;5052105;28;20053;-77
2022/07/09 02:06:10;;;;;;;11.77;3.10;;;;;;;-141.50;100.00;63355.56;5051257;28;20359;-77
2022/07/09 02:08:39;;;;;;;9.40;2.60;;;;;;;-141.50;100.00;63355.56;5049808;28;20044;-77
2022/07/09 02:11:08;;;;;;;10.48;3.20;;;;;;;-141.50;100.00;63355.56;5054380;28;20052;-79
2022/07/09 02:13:35;;;;;;;9.93;3.13;;;;;;;-141.50;100.00;63355.56;5052212;28;20128;-78
2022/07/09 02:16:02;;;;;;;10.15;2.70;;;;;;;-141.50;100.00;63355.56;5056143;28;20060;-78
2022/07/09 02:18:29;;;;;;;6.55;2.95;;;;;;;-141.50;100.00;63355.56;5056743;28;20122;-78
2022/07/09 02:20:57;;;;;;;8.70;3.03;;;;;;;-141.50;100.00;63355.56;5057439;28;20115;-79
2022/07/09 02:23:23;;;;;;;4.50;2.45;;;;;;;-141.50;100.00;63355.56;5054654;28;20159;-77
2022/07/09 02:25:50;;;;;;;12.00;2.70;;;;;;;-141.50;100.00;63355.56;5052933;28;20057;-79
2022/07/09 02:28:17;;;;;;;12.25;2.60;;;;;;;-141.50;100.00;63355.56;5050784;28;20045;-78
2022/07/09 02:30:43;;;;;;;8.98;3.15;;;;;;;-141.50;100.00;63355.56;5051399;28;20073;-78
2022/07/09 02:33:10;;;;;;;7.07;2.72;;;;;;;-141.50;100.00;63355.56;5049002;28;20063;-77
2022/07/09 02:35:37;;;;;;;11.57;3.10;;;;;;;-141.50;100.00;63355.56;5049990;28;20122;-77
2022/07/09 02:38:03;;;;;;;6.38;2.80;;;;;;;-141.50;100.00;63355.56;5049184;28;20073;-78
2022/07/09 02:40:30;;;;;;;5.65;2.80;;;;;;;-141.50;100.00;63355.56;5050541;28;20575;-78
2022/07/09 02:42:57;;;;;;;10.13;3.05;;;;;;;-141.50;100.00;63355.56;5048721;28;20119;-78
2022/07/09 02:45:23;;;;;;;5.85;2.53;;;;;;;-141.50;100.00;63355.56;5068008;28;20104;-79
2022/07/09 02:47:50;;;;;;;8.30;2.78;;;;;;;-141.50;100.00;63355.56;5074536;28;20029;-79
2022/07/09 02:50:19;;;;;;;6.97;3.13;;;;;;;-141.50;100.00;63355.56;5066563;28;20053;-77
2022/07/09 02:52:45;;;;;;;6.40;3.22;;;;;;;-141.50;100.00;63355.56;5033677;28;20095;-79
2022/07/09 02:55:15;;;;;;;7.53;2.70;;;;;;;-141.50;100.00;63355.56;5050944;28;20072;-80
2022/07/09 02:57:41;;;;;;;9.23;3.10;;;;;;;-141.50;100.00;63355.56;5034686;28;20132;-78
2022/07/09 03:00:08;;;;;;;8.25;2.88;;;;;;;-141.50;100.00;63355.56;5050515;28;20127;-79
2022/07/09 03:02:35;;;;;;;9.10;2.58;;;;;;;-141.50;100.00;63355.56;5051899;28;20082;-79
2022/07/09 03:05:02;;;;;;;10.40;2.60;;;;;;;-141.50;100.00;63355.56;5052430;28;20056;-79
2022/07/09 03:07:29;;;;;;;7.22;2.70;;;;;;;-141.50;100.00;63355.56;5055154;28;20110;-78
2022/07/09 03:09:56;;;;;;;6.43;2.55;;;;;;;-141.50;100.00;63355.56;5054972;28;20053;-78
2022/07/09 03:12:22;;;;;;;7.68;2.40;;;;;;;-141.50;100.00;63355.56;5049329;28;20053;-78
2022/07/09 03:14:49;;;;;;;8.75;2.80;;;;;;;-141.50;100.00;63355.56;5049420;28;20092;-79
2022/07/09 03:17:15;;;;;;;6.60;2.47;;;;;;;-141.50;100.00;63355.56;5054981;28;20140;-78
2022/07/09 03:19:42;;;;;;;9.95;3.08;;;;;;;-141.50;100.00;63355.56;5055463;28;20560;-79
2022/07/09 03:22:09;;;;;;;10.40;2.80;;;;;;;-141.50;100.00;63355.56;5052835;28;20074;-78
2022/07/09 03:24:35;;;;;;;5.65;2.42;;;;;;;-141.50;100.00;63355.56;5053023;28;20079;-79
2022/07/09 03:27:02;;;;;;;10.07;2.55;;;;;;;-141.50;100.00;63355.56;5053944;28;20509;-79
2022/07/09 03:29:29;;;;;;;9.23;2.67;;;;;;;-141.50;100.00;63355.56;5051628;28;20057;-78
2022/07/09 03:31:55;;;;;;;8.88;3.17;;;;;;;-141.50;100.00;63355.56;5033566;28;20569;-79
2022/07/09 03:34:22;;;;;;;11.43;3.20;;;;;;;-141.50;100.00;63355.56;5052926;28;20055;-78
2022/07/09 03:36:49;;;;;;;10.98;3.13;;;;;;;-141.50;100.00;63355.56;5050123;28;20148;-79
2022/07/09 03:39:16;;;;;;;8.43;3.55;;;;;;;-141.50;100.00;63355.56;5049642;28;20112;-78
2022/07/09 03:41:42;;;;;;;9.75;3.00;;;;;;;-141.50;100.00;63355.56;5050760;28;20088;-78
2022/07/09 03:44:09;;;;;;;6.47;2.58;;;;;;;-141.50;100.00;63355.56;5031744;28;20099;-78
2022/07/09 03:46:35;;;;;;;10.77;2.75;;;;;;;-141.50;100.00;63355.56;5031922;28;20475;-78
2022/07/09 03:49:02;;;;;;;8.73;3.30;;;;;;;-141.50;100.00;63355.56;5033106;28;20076;-78
2022/07/09 03:51:29;;;;;;;5.72;3.05;;;;;;;-141.50;100.00;63355.56;5029900;28;20453;-78
2022/07/09 03:53:55;;;;;;;8.95;3.25;;;;;;;-141.50;100.00;63355.56;5030128;28;20149;-78
2022/07/09 03:56:22;;;;;;;7.80;3.53;;;;;;;-141.50;100.00;63355.56;5033200;28;20077;-78
2022/07/09 03:58:49;;;;;;;7.80;3.22;;;;;;;-141.50;100.00;63355.56;5013671;28;20136;-78
2022/07/09 04:01:15;;;;;;;9.25;3.15;;;;;;;-141.50;100.00;63355.56;5011675;28;20566;-78
2022/07/09 04:03:42;;;;;;;8.35;3.20;;;;;;;-141.50;100.00;63355.56;5010518;28;20057;-79
2022/07/09 04:06:09;;;;;;;7.32;3.17;;;;;;;-141.50;100.00;63355.56;5012867;28;20061;-79
2022/07/09 04:08:35;;;;;;;8.00;3.03;;;;;;;-141.50;100.00;63355.56;5044931;28;20118;-77
2022/07/09 04:11:03;;;;;;;5.70;2.92;;;;;;;-141.50;100.00;63355.56;5056907;28;20045;-78
2022/07/09 04:13:30;;;;;;;8.95;3.22;;;;;;;-141.50;100.00;63355.56;5052593;28;20053;-78
2022/07/09 04:15:56;;;;;;;7.97;3.30;;;;;;;-141.50;100.00;63355.56;5049898;28;20505;-79
2022/07/09 04:18:23;;;;;;;8.00;3.25;;;;;;;-141.50;100.00;63355.56;5052365;28;20478;-78
2022/07/09 04:20:50;;;;;;;15.77;3.72;;;;;;;-141.50;100.00;63355.56;5053484;28;20041;-77
2022/07/09 04:23:17;;;;;;;9.50;3.20;;;;;;;-141.50;100.00;63355.56;5062862;28;20045;-78
2022/07/09 04:25:45;;;;;;;8.30;3.22;;;;;;;-141.50;100.00;63355.56;5059053;28;20055;-78
2022/07/09 04:28:12;;;;;;;8.95;3.10;;;;;;;-141.50;100.00;63355.56;5051237;28;20052;-78
2022/07/09 04:30:39;;;;;;;9.50;3.60;;;;;;;-141.50;100.00;63355.56;5048631;28;20049;-78
2022/07/09 04:33:06;;;;;;;9.45;3.17;;;;;;;-141.50;100.00;63355.56;5048703;28;20140;-78
2022/07/09 04:35:35;;;;;;;9.40;3.35;;;;;;;-141.50;100.00;63355.56;5047983;28;20262;-79
2022/07/09 04:38:03;;;;;;;7.15;3.00;;;;;;;-141.50;100.00;63355.56;5051258;28;20084;-78
2022/07/09 04:40:31;;;;;;;10.70;3.47;;;;;;;-141.50;100.00;63355.56;5048737;28;20485;-76
2022/07/09 04:42:57;;;;;;;11.32;3.40;;;;;;;-141.50;100.00;63355.56;5049615;28;20092;-79
2022/07/09 04:45:24;;;;;;;8.07;3.58;;;;;;;-141.50;100.00;63355.56;5049396;28;20638;-78
2022/07/09 04:47:50;;;;;;;8.90;3.15;;;;;;;-141.50;100.00;63355.56;5043149;28;20057;-79
2022/07/09 04:50:17;;;;;;;7.72;3.00;;;;;;;-141.50;100.00;63355.56;5032565;28;20057;-77
2022/07/09 04:52:44;;;;;;;5.97;2.65;;;;;;;-141.50;100.00;63355.56;5032018;28;20408;-78
2022/07/09 04:55:11;;;;;;;7.95;3.00;;;;;;;-141.50;100.00;63355.56;5014168;28;20081;-77
2022/07/09 04:57:38;;;;;;;6.82;2.90;;;;;;;-141.50;100.00;63355.56;5032842;28;20092;-78
2022/07/09 05:00:08;;;;;;;5.10;2.85;;;;;;;-141.50;100.00;63355.56;5032181;28;20512;-78
2022/07/09 05:02:35;;;;;;;11.75;3.45;;;;;;;-141.50;100.00;63355.56;5014186;28;20045;-78
2022/07/09 05:05:03;;;;;;;7.20;3.00;;;;;;;-141.50;100.00;63355.56;5049733;28;20053;-78
2022/07/09 05:07:30;;;;;;;9.00;2.47;;;;;;;-141.50;100.00;63355.56;5051129;28;20053;-78
2022/07/09 05:09:57;;;;;;;8.77;3.13;;;;;;;-141.50;100.00;63355.56;5052128;28;20061;-77
2022/07/09 05:12:23;;;;;;;8.98;3.22;;;;;;;-141.50;100.00;63355.56;5050382;28;20053;-78
2022/07/09 05:14:50;;;;;;;12.77;3.53;;;;;;;-141.50;100.00;63355.56;5051181;28;20140;-77
2022/07/09 05:17:16;;;;;;;11.90;3.40;;;;;;;-141.50;100.00;63355.56;5051816;28;20091;-76
2022/07/09 05:19:43;;;;;;;8.50;3.25;;;;;;;-141.50;100.00;63355.56;5051021;28;20083;-77
2022/07/09 05:22:10;;;;;;;10.75;3.58;;;;;;;-141.50;100.00;63355.56;5051687;28;20049;-77
2022/07/09 05:24:36;;;;;;;8.02;3.20;;;;;;;-141.50;100.00;63355.56;5053032;28;20474;-78
2022/07/09 05:27:04;;;;;;;10.38;3.75;;;;;;;-141.50;100.00;63355.56;5054489;28;20106;-77
2022/07/09 05:29:30;;;;;;;10.55;3.35;;;;;;;-141.50;100.00;63355.56;5055961;28;20061;-78
2022/07/09 05:31:57;;;;;;;6.07;2.90;;;;;;;-141.50;100.00;63355.56;5041790;28;20045;-78
2022/07/09 05:34:24;;;;;;;9.65;3.63;;;;;;;-141.50;100.00;63355.56;5045524;28;20049;-78
2022/07/09 05:36:58;;;;;;;7.30;3.13;;;;;;;-141.50;100.00;63355.56;5037686;28;20087;-79
2022/07/09 05:39:24;;;;;;;9.73;3.22;;;;;;;-141.50;100.00;63355.56;5041481;28;20636;-79
2022/07/09 05:41:51;;;;;;;8.63;3.10;;;;;;;-141.50;100.00;63355.56;5058961;28;20057;-79
2022/07/09 05:44:17;;;;;;;8.88;3.13;;;;;;;-141.50;100.00;63355.56;5052004;28;20049;-79
2022/07/09 05:46:50;;;;;;;10.30;3.15;;;;;;;-141.50;100.00;63355.56;5052011;28;20045;-80
2022/07/09 05:49:16;;;;;;;9.55;2.80;;;;;;;-141.50;100.00;63355.56;5055430;28;20049;-79
2022/07/09 05:51:43;;;;;;;8.65;3.17;;;;;;;-141.50;100.00;63355.56;5057741;28;20037;-79
2022/07/09 05:54:10;;;;;;;12.80;3.28;;;;;;;-141.50;100.00;63355.56;5057955;28;20056;-79
2022/07/09 05:56:36;;;;;;;7.78;3.10;;;;;;;-141.50;100.00;63355.56;5036091;28;20095;-80
2022/07/09 05:59:03;;;;;;;8.73;3.20;;;;;;;-141.50;100.00;63355.56;5055035;28;20608;-81
2022/07/09 06:01:30;;;;;;;6.22;2.72;;;;;;;-141.50;100.00;63355.56;5058689;28;20193;-79
2022/07/09 06:03:57;;;;;;;9.13;3.03;;;;;;;-141.50;100.00;63355.56;5057915;28;20520;-80
2022/07/09 06:06:24;;;;;;;7.22;2.83;;;;;;;-141.50;100.00;63355.56;5057849;28;20114;-79
2022/07/09 06:08:53;;;;;;;9.85;3.50;;;;;;;-141.50;100.00;63355.56;5073840;28;20037;-81
2022/07/09 06:11:20;;;;;;;8.85;3.30;;;;;;;-141.50;100.00;63355.56;5053114;28;20039;-81
2022/07/09 06:13:46;;;;;;;6.80;3.08;;;;;;;-141.50;100.00;63355.56;5053015;28;20053;-81
2022/07/09 06:16:13;;;;;;;6.63;2.80;;;;;;;-141.50;100.00;63355.56;5039349;28;20053;-81
2022/07/09 06:18:40;;;;;;;6.47;2.97;;;;;;;-141.50;100.00;63355.56;5043006;28;20059;-78
2022/07/09 06:21:06;;;;;;;6.97;3.08;;;;;;;-141.50;100.00;63355.56;5052829;28;20045;-79
2022/07/09 06:23:33;;;;;;;5.43;2.88;;;;;;;-141.50;100.00;63355.56;5029638;28;20603;-81
2022/07/09 06:26:00;;;;;;;8.27;2.80;;;;;;;-141.50;100.00;63355.56;5025725;28;20053;-79
2022/07/09 06:28:26;;;;;;;5.97;2.70;;;;;;;-141.50;100.00;63355.56;5058750;28;20110;-80
2022/07/09 06:30:53;;;;;;;6.30;2.63;;;;;;;-141.50;100.00;63355.56;5045898;28;20054;-80
2022/07/09 06:33:20;;;;;;;6.43;2.20;;;;;;;-141.50;100.00;63355.56;5045167;28;20080;-81
2022/07/09 06:35:46;;;;;;;6.53;2.00;;;;;;;-141.50;100.00;63355.56;5048503;28;20513;-80
2022/07/09 06:38:13;;;;;;;4.38;2.30;;;;;;;-141.50;100.00;63355.56;5049186;28;20295;-82
2022/07/09 06:40:43;;;;;;;5.15;2.40;;;;;;;-141.50;100.00;63355.56;5052518;28;20053;-82
2022/07/09 06:43:11;;;;;;;4.72;2.03;;;;;;;-141.50;100.00;63355.56;5060952;28;20049;-81
2022/07/09 06:45:38;;;;;;;7.65;2.63;;;;;;;-141.50;100.00;63355.56;5049963;28;20052;-80
2022/07/09 06:48:24;;;;;;;8.95;2.40;;;;;;;-141.50;100.00;63355.56;5036917;28;20092;-79
2022/07/09 06:50:59;;;;;;;7.32;2.45;;;;;;;-141.50;100.00;63355.56;5049463;28;20117;-80
2022/07/09 06:53:25;;;;;;;6.10;2.13;;;;;;;-141.50;100.00;63355.56;5047059;28;20520;-79
2022/07/09 06:55:52;;;;;;;5.13;1.98;;;;;;;-141.50;100.00;63355.56;5045202;28;20195;-80
2022/07/09 06:58:19;;;;;;;7.05;1.80;;;;;;;-141.50;100.00;63355.56;5057076;28;20056;-80
2022/07/09 07:00:45;;;;;;;4.32;2.10;;;;;;;-141.50;100.00;63355.56;5054545;28;20053;-79
2022/07/09 07:03:12;;;;;;;5.47;2.00;;;;;;;-141.50;100.00;63355.56;5055060;28;20573;-80
2022/07/09 07:05:38;;;;;;;7.18;2.75;;;;;;;-141.50;100.00;63355.56;5030543;28;20390;-79
2022/07/09 07:08:05;;;;;;;5.63;2.22;;;;;;;-141.50;100.00;63355.56;5045674;28;20127;-79
2022/07/09 07:10:32;;;;;;;4.18;2.47;;;;;;;-141.50;100.00;63355.56;5052565;28;20080;-79
2022/07/09 07:12:58;;;;;;;7.72;2.55;;;;;;;-141.50;100.00;63355.56;5045251;28;20041;-79
2022/07/09 07:15:25;;;;;;;7.18;2.70;;;;;;;-141.50;100.00;63355.56;5040282;28;20059;-78
2022/07/09 07:17:52;;;;;;;3.85;2.60;;;;;;;-141.50;100.00;63355.56;5036351;28;20041;-78
2022/07/09 07:20:24;;;;;;;8.50;2.97;;;;;;;-141.50;100.00;63355.56;5067472;28;20063;-78
2022/07/09 07:22:51;;;;;;;7.93;2.85;;;;;;;-141.50;100.00;63355.56;5031205;28;20052;-80
2022/07/09 07:25:18;;;;;;;6.03;2.60;;;;;;;-141.50;100.00;63355.56;5050951;28;20585;-80
2022/07/09 07:27:44;;;;;;;9.65;3.40;;;;;;;-141.50;100.00;63355.56;5040038;28;20387;-79
2022/07/09 07:30:11;;;;;;;5.22;3.38;;;;;;;-141.50;100.00;63355.56;5045183;28;20594;-79
2022/07/09 07:32:37;;;;;;;8.95;3.40;;;;;;;-141.50;100.00;63355.56;5049450;28;20049;-80
2022/07/09 07:35:04;;;;;;;3.70;3.00;;;;;;;-141.50;100.00;63355.56;5039595;28;20045;-79
2022/07/09 07:37:31;;;;;;;7.85;3.83;;;;;;;-141.50;100.00;63355.56;5031673;28;20398;-80
2022/07/09 07:40:08;;;;;;;5.55;3.65;;;;;;;-141.50;100.00;63355.56;5047765;28;20065;-77
2022/07/09 07:42:37;;;;;;;5.95;2.92;;;;;;;-141.50;100.00;63355.56;5049223;28;20197;-80
2022/07/09 07:45:04;;;;;;;5.80;3.25;;;;;;;-141.50;100.00;63355.56;5050157;28;20585;-81
2022/07/09 07:47:30;;;;;;;6.75;3.58;;;;;;;-141.50;100.00;63355.56;5033327;28;20051;-80
2022/07/09 07:49:57;;;;;;;5.90;3.80;;;;;;;-141.50;100.00;63355.56;5027140;28;20124;-78
2022/07/09 07:52:23;;;;;;;6.40;3.72;;;;;;;-141.50;100.00;63355.56;5044628;28;20087;-80
2022/07/09 07:54:50;;;;;;;6.75;3.13;;;;;;;-141.50;100.00;63355.56;5046683;28;20049;-79
2022/07/09 07:57:17;;;;;;;8.10;3.30;;;;;;;-141.50;100.00;63355.56;5046007;28;20053;-80
2022/07/09 07:59:43;;;;;;;4.55;3.05;;;;;;;-141.50;100.00;63355.56;5046572;28;20144;-80
2022/07/09 08:02:10;;;;;;;8.23;3.20;;;;;;;-141.50;100.00;63355.56;5047027;28;20193;-79
2022/07/09 08:04:36;;;;;;;7.53;3.00;;;;;;;-141.50;100.00;63355.56;5046424;28;20064;-80
2022/07/09 08:07:03;;;;;;;7.32;2.97;;;;;;;-141.50;100.00;63355.56;5045353;28;20065;-79
2022/07/09 08:09:31;;;;;;;6.18;2.90;;;;;;;-141.50;100.00;63355.56;5048259;28;20076;-79
2022/07/09 08:12:00;;;;;;;5.22;2.80;;;;;;;-141.50;100.00;63355.56;5046905;28;20053;-79
2022/07/09 08:14:27;;;;;;;9.20;3.10;;;;;;;-141.50;100.00;63355.56;5044650;28;20413;-75
2022/07/09 08:16:54;;;;;;;8.25;2.97;;;;;;;-141.50;100.00;63355.56;5042278;28;20075;-79
2022/07/09 08:19:20;;;;;;;5.07;2.30;;;;;;;-141.50;100.00;63355.56;5043128;28;20083;-79
2022/07/09 08:21:47;;;;;;;6.30;2.67;;;;;;;-141.50;100.00;63355.56;5040232;28;20222;-76
2022/07/09 08:24:13;;;;;;;6.28;2.10;;;;;;;-141.50;100.00;63355.56;5041390;28;20132;-79
2022/07/09 08:26:40;;;;;;;5.47;1.98;;;;;;;-141.50;100.00;63355.56;5030156;28;20428;-79
2022/07/09 08:29:09;;;;;;;6.75;2.22;;;;;;;-141.50;100.00;63355.56;5050322;28;20412;-79
2022/07/09 08:31:35;;;;;;;8.77;2.40;;;;;;;-141.50;100.00;63355.56;5055266;28;20072;-78
2022/07/09 08:34:02;;;;;;;7.28;1.92;;;;;;;-141.50;100.00;63355.56;5046235;28;20160;-78
2022/07/09 08:36:28;;;;;;;7.05;1.88;;;;;;;-141.50;100.00;63355.56;5037613;28;20504;-78
2022/07/09 08:38:55;;;;;;;3.33;1.55;;;;;;;-141.50;100.00;63355.56;5033680;28;20052;-79
2022/07/09 08:41:23;;;;;;;4.05;1.40;;;;;;;-141.50;100.00;63355.56;5040095;28;20461;-78
2022/07/09 08:43:53;;;;;;;3.33;1.30;;;;;;;-141.50;100.00;63355.56;5043220;28;20061;-78
2022/07/09 08:46:20;;;;;;;6.00;1.52;;;;;;;-141.50;100.00;63355.56;5019429;28;20144;-78
2022/07/09 08:48:49;;;;;;;5.15;1.77;;;;;;;-141.50;100.00;63355.56;5041753;28;20082;-77
2022/07/09 08:51:17;;;;;;;5.50;1.70;;;;;;;-141.50;100.00;63355.56;5040756;28;20057;-78
2022/07/09 08:53:44;;;;;;;4.00;1.70;;;;;;;-141.50;100.00;63355.56;5028448;28;20131;-78
2022/07/09 08:56:11;;;;;;;4.95;1.80;;;;;;;-141.50;100.00;63355.56;5042460;28;20052;-78
2022/07/09 08:58:38;;;;;;;2.78;1.60;;;;;;;-141.50;100.00;63355.56;5038435;28;20083;-79
2022/07/09 09:01:06;;;;;;;3.58;1.38;;;;;;;-141.50;100.00;63355.56;5024512;28;20049;-79
2022/07/09 09:03:36;;;;;;;4.28;1.70;;;;;;;-141.50;100.00;63355.56;5037766;28;20045;-78
2022/07/09 09:06:05;;;;;;;4.32;1.80;;;;;;;-141.50;100.00;63355.56;5032666;28;20106;-79
2022/07/09 09:08:36;;;;;;;2.38;1.42;;;;;;;-141.50;100.00;63355.56;5024113;28;20134;-78
2022/07/09 09:11:11;;;;;;;5.68;1.80;;;;;;;-141.50;100.00;63355.56;5041891;28;20062;-77
2022/07/09 09:13:43;;;;;;;6.47;1.67;;;;;;;-141.50;100.00;63355.56;5040809;28;20045;-79
2022/07/09 09:16:11;;;;;;;2.97;1.50;;;;;;;-141.50;100.00;63355.56;5001146;28;20272;-78
2022/07/09 09:18:42;;;;;;;4.85;1.58;;;;;;;-141.50;100.00;63355.56;5024512;28;20388;-77
2022/07/09 09:21:11;;;;;;;4.53;1.85;;;;;;;-141.50;100.00;63355.56;5037065;28;20159;-78
2022/07/09 09:23:48;;;;;;;2.75;1.60;;;;;;;-141.50;100.00;63355.56;5037474;28;20281;-78
2022/07/09 09:26:20;;;;;;;3.78;1.60;;;;;;;-141.50;100.00;63355.56;5045212;28;20080;-78
2022/07/09 09:28:56;;;;;;;4.97;1.70;;;;;;;-141.50;100.00;63355.56;5046080;28;20076;-78
2022/07/09 09:31:33;;;;;;;4.35;1.70;;;;;;;-141.50;100.00;63355.56;5058132;28;20121;-78
2022/07/09 09:34:09;;;;;;;7.13;1.67;;;;;;;-141.50;100.00;63355.56;5057137;28;20053;-78
2022/07/09 09:36:43;;;;;;;7.55;1.90;;;;;;;-141.50;100.00;63355.56;5058749;28;20114;-78
2022/07/09 09:39:18;;;;;;;3.38;2.25;;;;;;;-141.50;100.00;63355.56;5058255;28;20084;-78
2022/07/09 09:41:49;;;;;;;8.05;2.65;;;;;;;-141.50;100.00;63355.56;5040016;28;20049;-78
2022/07/09 09:44:18;;;;;;;6.45;4.20;;;;;;;-141.50;100.00;63355.56;5053181;28;20121;-78
2022/07/09 09:46:46;;;;;;;5.63;3.70;;;;;;;-141.50;100.00;63355.56;5055483;28;20053;-77
2022/07/09 09:49:15;;;;;;;6.28;3.47;;;;;;;-141.50;100.00;63355.56;5054724;28;20066;-77
2022/07/09 09:51:47;;;;;;;6.63;2.90;;;;;;;-141.50;100.00;63355.56;5043847;28;20347;-77
2022/07/09 09:54:16;;;;;;;4.82;2.90;;;;;;;-141.50;100.00;63355.56;5046283;28;20048;-77
2022/07/09 09:56:43;;;;;;;6.38;3.08;;;;;;;-141.50;100.00;63355.56;5048000;28;20456;-77
2022/07/09 09:59:11;;;;;;;7.97;3.08;;;;;;;-141.50;100.00;63355.56;5018881;28;20060;-77
2022/07/09 10:01:40;;;;;;;16.30;3.38;;;;;;;-141.50;100.00;63355.56;5047128;28;20056;-78
2022/07/09 10:04:07;;;;;;;5.00;3.40;;;;;;;-141.50;100.00;63355.56;5047600;28;20128;-78
2022/07/09 10:06:34;;;;;;;9.68;4.20;;;;;;;-141.50;100.00;63355.56;5046842;28;20150;-78
2022/07/09 10:09:07;;;;;;;11.55;5.80;;;;;;;-141.50;100.00;63355.56;5045104;28;20490;-79
2022/07/09 10:11:44;;;;;;;11.23;6.10;;;;;;;-141.50;100.00;63355.56;5052450;28;20083;-79
2022/07/09 10:14:32;;;;;;;13.70;6.70;;;;;;;-141.50;100.00;63355.56;5058511;28;20159;-79
2022/07/09 10:17:15;;;;;;;16.05;8.70;;;;;;;-141.50;100.00;63355.56;5046941;28;20139;-78
2022/07/09 10:19:58;;;;;;;14.68;10.38;;;;;;;-141.50;100.00;63355.56;5044287;28;20653;-79
2022/07/09 10:22:38;;;;;;;14.60;11.05;;;;;;;-141.50;100.00;63355.56;5046269;28;20048;-78
2022/07/09 10:25:05;;;;;;;21.23;13.43;;;;;;;-141.50;100.00;63355.56;5045801;28;20061;-79
2022/07/09 10:27:46;;;;;;;19.77;13.65;;;;;;;-141.50;100.00;63355.56;5048554;28;20351;-79
2022/07/09 10:30:33;;;;;;;19.35;14.32;;;;;;;-141.50;100.00;63355.56;5045156;28;20077;-79
2022/07/09 10:33:04;;;;;;;19.60;14.63;;;;;;;-141.50;100.00;63355.56;5048312;28;20502;-79
2022/07/09 10:35:39;;;;;;;21.00;15.07;;;;;;;-141.50;100.00;63355.56;5048168;28;20102;-79
2022/07/09 10:38:07;;;;;;;18.50;13.65;;;;;;;-141.50;100.00;63355.56;5048713;28;20074;-77
2022/07/09 10:40:44;;;;;;;18.58;14.73;;;;;;;-141.50;100.00;63355.56;5059589;28;20033;-79
2022/07/09 10:43:12;;;;;;;19.42;13.88;;;;;;;-141.50;100.00;63355.56;5059109;28;20460;-79
2022/07/09 10:45:44;;;;;;;20.52;15.45;;;;;;;-141.50;100.00;63355.56;5053013;28;20505;-79
2022/07/09 10:48:15;;;;;;;18.63;13.18;;;;;;;-141.50;100.00;63355.56;5046806;28;20154;-81
2022/07/09 10:50:44;;;;;;;15.85;12.20;;;;;;;-141.50;100.00;63355.56;5032948;28;20506;-81
2022/07/09 10:53:12;;;;;;;15.88;12.88;;;;;;;-141.50;100.00;63355.56;5033350;28;20050;-81
2022/07/09 10:55:43;;;;;;;16.67;10.40;;;;;;;-141.50;100.00;63355.56;5059163;28;20429;-78
2022/07/09 10:58:20;;;;;;;18.38;9.93;;;;;;;-141.50;100.00;63355.56;5065562;28;20053;-78
2022/07/09 11:01:00;;;;;;;11.27;8.23;;;;;;;-141.50;100.00;63355.56;5062683;28;20063;-79
2022/07/09 11:03:27;;;;;;;12.57;7.15;;;;;;;-141.50;100.00;63355.56;5057504;28;20049;-79
2022/07/09 11:05:54;;;;;;;11.52;6.63;;;;;;;-141.50;100.00;63355.56;5053851;28;20084;-78
2022/07/09 11:08:21;;;;;;;9.20;6.57;;;;;;;-141.50;100.00;63355.56;5059116;28;20292;-78
2022/07/09 11:10:51;;;;;;;9.75;6.28;;;;;;;-141.50;100.00;63355.56;5052544;28;20063;-81